Split Lake, Canada
Current Conditions -  °F | °C
As of 4:00 AM on Friday 31 Oct 2014 (Local Time) from CYGX Reporting Station
Clear Clear  
Wind Chill: -1°   Ceiling: Unl
Heat Index: 12°   Visibility: 15mi
Dew Point:   Wind: 10mph
Humidity: 85%   Direction: 220°SW
Pressure: 30.43"   Gusts: NA
Location:  56.25°N, 96.1°W
Report Text: CYGX 310900Z 22009KT 15SM SKC M11/M13 A3043 RMK SLP320
Loading
Personal Weather Stations






























Interactive Weather Map
Tropical Storm Tracking
New forecast layout! Learn more

10-Day Weather Forecast

Advertisements
Track Severe Weather on mobile